createdAt,value
2018-09-13T00:02:08.567Z,1.20
2018-09-13T00:04:35.869Z,1.20
2018-09-13T00:07:03.045Z,1.03
2018-09-13T00:09:30.193Z,1.40
2018-09-13T00:11:57.473Z,1.37
2018-09-13T00:14:24.709Z,1.50
2018-09-13T00:16:51.903Z,1.30
2018-09-13T00:19:19.118Z,1.30
2018-09-13T00:21:46.295Z,1.43
2018-09-13T00:24:13.456Z,1.60
2018-09-13T00:26:40.694Z,1.30
2018-09-13T00:29:07.901Z,1.20
2018-09-13T00:31:35.082Z,1.50
2018-09-13T00:34:02.314Z,1.30
2018-09-13T00:36:29.505Z,1.27
2018-09-13T00:38:56.678Z,1.47
2018-09-13T00:41:23.917Z,1.23
2018-09-13T00:43:51.107Z,1.33
2018-09-13T00:46:18.295Z,1.10
2018-09-13T00:48:45.507Z,1.60
2018-09-13T00:51:12.838Z,1.30
2018-09-13T00:53:40.022Z,1.30
2018-09-13T00:56:07.354Z,1.27
2018-09-13T00:58:34.567Z,1.50
2018-09-13T01:01:01.686Z,1.20
2018-09-13T01:03:28.916Z,1.00
2018-09-13T01:05:56.097Z,1.27
2018-09-13T01:08:23.281Z,1.20
2018-09-13T01:10:50.496Z,1.20
2018-09-13T01:13:17.653Z,1.20
2018-09-13T01:15:44.898Z,1.40
2018-09-13T01:18:12.125Z,1.30
2018-09-13T01:23:03.973Z,1.10
2018-09-13T01:25:31.224Z,1.30
2018-09-13T01:27:58.414Z,1.30
2018-09-13T01:30:25.606Z,1.40
2018-09-13T01:32:52.974Z,1.30
2018-09-13T01:35:20.174Z,1.20
2018-09-13T01:37:47.407Z,1.20
2018-09-13T01:40:14.628Z,1.20
2018-09-13T01:42:41.826Z,1.33
2018-09-13T01:45:09.025Z,1.50
2018-09-13T01:47:36.293Z,1.27
2018-09-13T01:50:03.517Z,1.30
2018-09-13T01:52:30.757Z,1.47
2018-09-13T01:55:00.046Z,1.40
2018-09-13T01:57:27.224Z,1.33
2018-09-13T01:59:54.422Z,1.40
2018-09-13T02:02:21.648Z,1.50
2018-09-13T02:04:54.987Z,1.00
2018-09-13T02:07:22.395Z,1.20
2018-09-13T02:09:49.675Z,1.30
2018-09-13T02:12:16.901Z,1.27
2018-09-13T02:14:44.189Z,1.40
2018-09-13T02:17:11.453Z,1.23
2018-09-13T02:19:38.631Z,1.40
2018-09-13T02:22:06.017Z,1.40
2018-09-13T02:24:33.349Z,1.97
2018-09-13T02:27:00.553Z,1.20
2018-09-13T02:29:27.781Z,1.17
2018-09-13T02:31:54.975Z,1.20
2018-09-13T02:34:22.160Z,1.20
2018-09-13T02:36:49.374Z,1.60
2018-09-13T02:39:16.561Z,1.20
2018-09-13T02:41:43.796Z,1.37
2018-09-13T02:44:11.105Z,1.30
2018-09-13T02:46:38.941Z,1.23
2018-09-13T02:49:06.225Z,1.30
2018-09-13T02:51:33.459Z,1.20
2018-09-13T02:54:00.671Z,1.40
2018-09-13T02:56:27.864Z,1.10
2018-09-13T02:58:55.122Z,1.30
2018-09-13T03:01:22.386Z,1.20
2018-09-13T03:03:49.573Z,1.30
2018-09-13T03:06:16.886Z,1.30
2018-09-13T03:08:44.085Z,1.40
2018-09-13T03:11:11.253Z,1.27
2018-09-13T03:13:38.524Z,1.30
2018-09-13T03:16:05.689Z,1.10
2018-09-13T03:18:33.083Z,1.40
2018-09-13T03:21:00.338Z,1.30
2018-09-13T03:23:27.598Z,1.10
2018-09-13T03:25:54.840Z,1.10
2018-09-13T03:28:22.108Z,1.10
2018-09-13T03:30:49.369Z,1.30
2018-09-13T03:33:16.733Z,1.30
2018-09-13T03:35:46.002Z,1.53
2018-09-13T03:38:13.177Z,1.50
2018-09-13T03:40:40.439Z,1.40
2018-09-13T03:43:07.628Z,1.40
2018-09-13T03:45:34.837Z,1.30
2018-09-13T03:48:02.159Z,1.40
2018-09-13T03:50:31.470Z,1.20
2018-09-13T03:52:58.653Z,1.40
2018-09-13T03:55:25.902Z,1.33
2018-09-13T03:57:53.107Z,1.17
2018-09-13T04:00:20.466Z,1.50
2018-09-13T04:02:47.715Z,1.33
2018-09-13T04:05:14.913Z,1.20
2018-09-13T04:07:42.127Z,0.90
2018-09-13T04:10:09.440Z,1.53
2018-09-13T04:12:36.655Z,1.17
2018-09-13T04:15:04.035Z,1.30
2018-09-13T04:17:31.279Z,1.50
2018-09-13T04:19:58.932Z,1.40
2018-09-13T04:22:26.109Z,1.47
2018-09-13T04:24:53.457Z,1.17
2018-09-13T04:27:20.671Z,1.60
2018-09-13T04:29:47.877Z,1.20
2018-09-13T04:32:15.939Z,1.43
2018-09-13T04:34:43.141Z,1.30
2018-09-13T04:37:10.434Z,1.40
2018-09-13T04:39:37.774Z,1.60
2018-09-13T04:42:05.002Z,1.40
2018-09-13T04:44:32.216Z,1.50
2018-09-13T04:46:59.470Z,1.57
2018-09-13T04:49:26.694Z,1.53
2018-09-13T04:51:53.940Z,1.50
2018-09-13T04:54:21.223Z,1.30
2018-09-13T04:56:48.450Z,1.73
2018-09-13T04:59:15.648Z,1.90
2018-09-13T05:01:44.250Z,2.07
2018-09-13T05:04:12.072Z,1.50
2018-09-13T05:06:39.622Z,1.60
2018-09-13T05:09:10.051Z,1.47
2018-09-13T05:11:37.258Z,1.40
2018-09-13T05:14:04.547Z,1.40
2018-09-13T05:16:31.826Z,1.30
2018-09-13T05:18:59.574Z,1.50
2018-09-13T05:21:26.837Z,1.60
2018-09-13T05:23:54.088Z,1.30
2018-09-13T05:26:21.351Z,1.70
2018-09-13T05:28:48.708Z,1.40
2018-09-13T05:31:15.977Z,1.60
2018-09-13T05:33:43.174Z,1.50
2018-09-13T05:36:10.376Z,1.60
2018-09-13T05:38:37.642Z,1.40
2018-09-13T05:41:04.829Z,1.30
2018-09-13T05:43:33.104Z,1.67
2018-09-13T05:46:00.364Z,1.90
2018-09-13T05:48:27.571Z,1.90
2018-09-13T05:50:54.771Z,1.93
2018-09-13T05:53:21.997Z,1.60
2018-09-13T05:55:49.188Z,1.40
2018-09-13T05:58:16.462Z,1.37
2018-09-13T06:00:43.675Z,1.40
2018-09-13T06:03:10.898Z,1.50
2018-09-13T06:05:38.102Z,1.60
2018-09-13T06:08:05.501Z,1.50
2018-09-13T06:10:32.677Z,1.50
2018-09-13T06:12:59.893Z,1.50
2018-09-13T06:15:27.225Z,1.60
2018-09-13T06:17:54.464Z,1.40
2018-09-13T06:20:21.633Z,2.27
2018-09-13T06:22:48.924Z,1.70
2018-09-13T06:25:16.135Z,1.80
2018-09-13T06:27:43.325Z,1.40
2018-09-13T06:30:10.548Z,1.67
2018-09-13T06:32:37.734Z,1.80
2018-09-13T06:35:05.206Z,1.60
2018-09-13T06:37:32.453Z,1.83
2018-09-13T06:39:59.659Z,1.93
2018-09-13T06:42:26.858Z,1.93
2018-09-13T06:44:54.121Z,1.50
2018-09-13T06:47:21.326Z,1.60
2018-09-13T06:49:48.503Z,1.70
2018-09-13T06:52:15.777Z,1.60
2018-09-13T06:54:42.988Z,2.00
2018-09-13T06:57:10.195Z,1.70
2018-09-13T06:59:37.558Z,1.90
2018-09-13T07:02:04.764Z,1.93
2018-09-13T07:04:31.945Z,1.93
2018-09-13T07:06:59.269Z,2.00
2018-09-13T07:09:26.446Z,1.90
2018-09-13T07:11:53.659Z,2.27
2018-09-13T07:14:20.901Z,2.00
2018-09-13T07:16:48.097Z,2.43
2018-09-13T07:19:15.289Z,1.87
2018-09-13T07:21:42.532Z,2.40
2018-09-13T07:24:09.873Z,2.17
2018-09-13T07:26:37.073Z,1.93
2018-09-13T07:29:04.373Z,2.30
2018-09-13T07:31:31.578Z,2.13
2018-09-13T07:33:58.904Z,1.87
2018-09-13T07:36:26.233Z,1.90
2018-09-13T07:38:53.453Z,1.70
2018-09-13T07:41:20.805Z,2.10
2018-09-13T07:43:48.025Z,2.00
2018-09-13T07:46:15.255Z,2.20
2018-09-13T07:48:42.525Z,1.93
2018-09-13T07:51:09.812Z,2.20
2018-09-13T07:53:37.125Z,2.07
2018-09-13T07:56:04.374Z,1.90
2018-09-13T07:58:31.581Z,1.90
2018-09-13T08:00:58.841Z,2.10
2018-09-13T08:03:26.217Z,1.80
2018-09-13T08:05:53.416Z,1.83
2018-09-13T08:08:20.603Z,1.90
2018-09-13T08:10:48.971Z,1.60
2018-09-13T08:13:16.155Z,1.90
2018-09-13T08:15:43.382Z,2.33
2018-09-13T08:18:10.663Z,2.03
2018-09-13T08:20:38.596Z,1.93
2018-09-13T08:23:06.055Z,2.07
2018-09-13T08:25:33.328Z,1.77
2018-09-13T08:28:00.847Z,2.23
2018-09-13T08:30:28.159Z,2.33
2018-09-13T08:32:55.480Z,1.80
2018-09-13T08:35:22.829Z,2.17
2018-09-13T08:37:50.017Z,1.90
2018-09-13T08:40:17.384Z,1.90
2018-09-13T08:42:44.536Z,2.17
2018-09-13T08:45:11.813Z,2.03
2018-09-13T08:47:39.189Z,2.07
2018-09-13T08:50:06.430Z,1.73
2018-09-13T08:52:33.738Z,2.00
2018-09-13T08:55:01.948Z,2.30
2018-09-13T08:57:29.121Z,2.23
2018-09-13T08:59:56.344Z,1.90
2018-09-13T09:02:23.709Z,2.00
2018-09-13T09:04:50.881Z,2.30
2018-09-13T09:07:18.223Z,1.50
2018-09-13T09:09:45.453Z,2.23
2018-09-13T09:12:12.631Z,2.53
2018-09-13T09:14:39.804Z,1.90
2018-09-13T09:17:07.087Z,2.23
2018-09-13T09:19:34.266Z,2.10
2018-09-13T09:22:01.619Z,2.00
2018-09-13T09:24:28.841Z,2.03
2018-09-13T09:26:56.002Z,2.33
2018-09-13T09:29:23.302Z,2.13
2018-09-13T09:31:50.503Z,1.97
2018-09-13T09:34:17.698Z,2.13
2018-09-13T09:36:44.921Z,2.57
2018-09-13T09:39:13.720Z,2.23
2018-09-13T09:41:40.894Z,2.13
2018-09-13T09:44:08.229Z,2.00
2018-09-13T09:46:35.525Z,2.50
2018-09-13T09:49:02.744Z,1.87
2018-09-13T09:51:29.930Z,1.90
2018-09-13T09:53:57.233Z,1.70
2018-09-13T09:56:24.604Z,1.83
2018-09-13T09:58:52.330Z,2.23
2018-09-13T10:01:26.887Z,2.20
2018-09-13T10:03:55.134Z,1.90
2018-09-13T10:06:22.319Z,1.93
2018-09-13T10:08:49.535Z,1.60
2018-09-13T10:11:16.696Z,1.93
2018-09-13T10:13:43.849Z,1.70
2018-09-13T10:16:16.865Z,1.97
2018-09-13T10:18:45.435Z,2.00
2018-09-13T10:21:18.463Z,1.87
2018-09-13T10:23:51.381Z,1.80
2018-09-13T10:26:24.229Z,2.00
2018-09-13T10:28:57.127Z,2.00
2018-09-13T10:31:30.189Z,2.23
2018-09-13T10:34:03.006Z,2.27
2018-09-13T10:36:35.933Z,2.00
2018-09-13T10:39:10.308Z,1.60
2018-09-13T10:41:43.295Z,2.07
2018-09-13T10:44:16.115Z,1.80
2018-09-13T10:46:43.348Z,2.03
2018-09-13T10:49:16.132Z,1.90
2018-09-13T10:53:53.150Z,2.60
2018-09-13T10:56:20.377Z,1.73
2018-09-13T10:58:47.585Z,1.90
2018-09-13T11:01:14.794Z,1.90
2018-09-13T11:03:41.949Z,1.93
2018-09-13T11:06:09.165Z,2.47
2018-09-13T11:08:36.360Z,1.83
2018-09-13T11:11:03.971Z,1.93
2018-09-13T11:13:37.674Z,2.20
2018-09-13T11:16:05.012Z,2.13
2018-09-13T11:18:32.239Z,2.37
2018-09-13T11:20:59.514Z,2.13
2018-09-13T11:23:26.802Z,2.50
2018-09-13T11:25:54.032Z,2.33
2018-09-13T11:28:21.253Z,2.10
2018-09-13T11:30:54.274Z,1.97
2018-09-13T11:33:21.501Z,2.37
2018-09-13T11:35:48.814Z,1.93
2018-09-13T11:38:16.119Z,1.93
2018-09-13T11:40:43.581Z,2.40
2018-09-13T11:43:10.908Z,2.10
2018-09-13T11:45:39.566Z,1.80
2018-09-13T11:48:06.778Z,1.87
2018-09-13T11:50:33.973Z,2.30
2018-09-13T11:53:02.642Z,2.77
2018-09-13T11:55:29.945Z,2.33
2018-09-13T11:57:57.288Z,2.23
2018-09-13T12:00:24.661Z,2.00
2018-09-13T12:02:51.874Z,2.00
2018-09-13T12:05:19.041Z,2.37
2018-09-13T12:07:46.227Z,2.40
2018-09-13T12:10:13.463Z,1.83
2018-09-13T12:12:40.721Z,2.73
2018-09-13T12:15:08.598Z,2.10
2018-09-13T12:17:35.793Z,2.23
2018-09-13T12:20:03.024Z,1.97
2018-09-13T12:22:31.388Z,2.20
2018-09-13T12:24:58.705Z,1.90
2018-09-13T12:27:25.970Z,2.20
2018-09-13T12:29:53.128Z,2.30
2018-09-13T12:32:20.406Z,2.00
2018-09-13T12:34:47.735Z,2.17
2018-09-13T12:37:16.022Z,1.80
2018-09-13T12:39:43.265Z,1.73
2018-09-13T12:42:10.455Z,1.90
2018-09-13T12:44:37.638Z,1.93
2018-09-13T12:47:04.977Z,2.00
2018-09-13T12:49:32.144Z,2.17
2018-09-13T12:51:59.333Z,1.73
2018-09-13T12:54:31.846Z,2.10
2018-09-13T12:56:59.004Z,2.20
2018-09-13T12:59:26.264Z,2.03
2018-09-13T13:01:53.457Z,1.70
2018-09-13T13:04:20.628Z,1.77
2018-09-13T13:06:47.878Z,1.77
2018-09-13T13:09:15.146Z,1.80
2018-09-13T13:11:42.350Z,1.70
2018-09-13T13:14:09.522Z,2.03
2018-09-13T13:16:36.868Z,1.57
2018-09-13T13:19:04.178Z,1.70
2018-09-13T13:21:31.358Z,1.73
2018-09-13T13:23:58.602Z,1.80
2018-09-13T13:26:25.781Z,1.80
2018-09-13T13:28:52.968Z,1.80
2018-09-13T13:31:20.201Z,1.70
2018-09-13T13:33:47.376Z,1.83
2018-09-13T13:36:14.537Z,2.80
2018-09-13T13:38:41.775Z,2.10
2018-09-13T13:41:09.023Z,1.90
2018-09-13T13:43:36.216Z,2.10
2018-09-13T13:46:03.437Z,2.00
2018-09-13T13:48:30.823Z,2.00
2018-09-13T13:50:58.045Z,1.73
2018-09-13T13:53:25.261Z,1.47
2018-09-13T13:55:52.434Z,2.00
2018-09-13T13:58:19.583Z,1.90
2018-09-13T14:00:46.917Z,2.10
2018-09-13T14:03:14.089Z,1.80
2018-09-13T14:05:41.233Z,2.00
2018-09-13T14:08:08.773Z,1.90
2018-09-13T14:10:36.602Z,1.80
2018-09-13T14:13:03.913Z,1.90
2018-09-13T14:15:31.323Z,2.30
2018-09-13T14:17:58.471Z,2.30
2018-09-13T14:20:25.719Z,2.33
2018-09-13T14:22:52.892Z,2.33
2018-09-13T14:25:20.094Z,2.30
2018-09-13T14:27:47.261Z,2.03
2018-09-13T14:30:14.438Z,2.17
2018-09-13T14:32:41.626Z,2.30
2018-09-13T14:35:08.790Z,2.23
2018-09-13T14:37:36.021Z,2.30
2018-09-13T14:40:03.270Z,2.30
2018-09-13T14:42:30.406Z,2.63
2018-09-13T14:44:57.608Z,2.13
2018-09-13T14:47:24.765Z,2.10
2018-09-13T14:49:51.925Z,2.20
2018-09-13T14:52:19.155Z,2.27
2018-09-13T14:54:46.303Z,2.60
2018-09-13T14:57:13.547Z,2.63
2018-09-13T14:59:40.725Z,2.40
2018-09-13T15:02:08.053Z,2.40
2018-09-13T15:04:35.244Z,2.30
2018-09-13T15:07:02.625Z,2.43
2018-09-13T15:09:29.647Z,2.00
2018-09-13T15:11:56.802Z,2.20
2018-09-13T15:14:23.993Z,2.30
2018-09-13T15:16:51.137Z,2.33
2018-09-13T15:19:18.301Z,2.57
2018-09-13T15:21:45.509Z,2.57
2018-09-13T15:24:12.718Z,2.33
2018-09-13T15:26:39.873Z,2.70
2018-09-13T15:29:07.057Z,2.40
2018-09-13T15:31:34.194Z,2.40
2018-09-13T15:34:01.338Z,2.40
2018-09-13T15:36:28.525Z,2.30
2018-09-13T15:38:55.734Z,2.27
2018-09-13T15:41:22.900Z,1.90
2018-09-13T15:43:50.575Z,2.10
2018-09-13T15:46:17.760Z,1.93
2018-09-13T15:48:44.896Z,2.10
2018-09-13T15:51:12.099Z,1.90
2018-09-13T15:53:39.249Z,1.80
2018-09-13T15:56:06.440Z,1.90
2018-09-13T15:58:33.646Z,1.90
2018-09-13T16:01:02.106Z,1.93
2018-09-13T16:03:29.377Z,2.00
2018-09-13T16:05:56.730Z,1.90
2018-09-13T16:08:24.083Z,2.23
2018-09-13T16:10:51.317Z,2.17
2018-09-13T16:13:18.649Z,2.10
2018-09-13T16:15:45.937Z,1.70
2018-09-13T16:18:13.180Z,1.83
2018-09-13T16:20:40.709Z,1.83
2018-09-13T16:23:07.946Z,1.67
2018-09-13T16:25:35.205Z,1.83
2018-09-13T16:28:02.647Z,1.60
2018-09-13T16:30:30.059Z,1.63
2018-09-13T16:32:57.284Z,1.90
2018-09-13T16:35:24.694Z,1.70
2018-09-13T16:37:57.453Z,2.03
2018-09-13T16:40:30.511Z,2.17
2018-09-13T16:43:03.690Z,2.23
2018-09-13T16:45:31.265Z,2.10
2018-09-13T16:48:05.515Z,1.97
2018-09-13T16:50:32.783Z,2.30
2018-09-13T16:53:00.099Z,2.10
2018-09-13T16:55:27.377Z,1.90
2018-09-13T16:57:54.702Z,1.83
2018-09-13T17:00:23.489Z,1.90
2018-09-13T17:02:50.788Z,2.10
2018-09-13T17:05:18.184Z,1.80
2018-09-13T17:07:45.478Z,1.93
2018-09-13T17:10:12.775Z,2.30
2018-09-13T17:12:40.123Z,2.50
2018-09-13T17:15:07.443Z,2.73
2018-09-13T17:17:34.693Z,2.47
2018-09-13T17:20:02.037Z,2.50
2018-09-13T17:22:29.265Z,2.67
2018-09-13T17:24:56.546Z,2.90
2018-09-13T17:27:23.884Z,3.00
2018-09-13T17:29:51.134Z,2.50
2018-09-13T17:32:18.419Z,2.90
2018-09-13T17:34:45.765Z,2.83
2018-09-13T17:37:13.007Z,2.93
2018-09-13T17:39:40.264Z,3.10
2018-09-13T17:42:07.588Z,2.80
2018-09-13T17:44:34.863Z,2.90
2018-09-13T17:47:02.044Z,2.90
2018-09-13T17:49:29.350Z,3.03
2018-09-13T17:51:56.564Z,3.13
2018-09-13T17:54:23.750Z,2.90
2018-09-13T17:56:51.069Z,3.43
2018-09-13T17:59:18.269Z,2.80
2018-09-13T18:01:45.506Z,3.40
2018-09-13T18:04:12.805Z,3.37
2018-09-13T18:06:40.057Z,3.20
2018-09-13T18:09:08.283Z,3.73
2018-09-13T18:11:35.517Z,3.70
2018-09-13T18:14:02.713Z,4.17
2018-09-13T18:16:34.611Z,4.50
2018-09-13T18:19:01.936Z,4.53
2018-09-13T18:21:29.164Z,4.10
2018-09-13T18:23:56.462Z,5.17
2018-09-13T18:26:23.653Z,4.43
2018-09-13T18:28:50.801Z,4.43
2018-09-13T18:31:19.035Z,4.47
2018-09-13T18:33:46.833Z,4.40
2018-09-13T18:36:14.117Z,4.27
2018-09-13T18:38:41.516Z,3.80
2018-09-13T18:41:08.691Z,4.50
2018-09-13T18:43:35.924Z,4.33
2018-09-13T18:46:03.470Z,4.63
2018-09-13T18:48:30.690Z,4.17
2018-09-13T18:50:57.871Z,4.70
2018-09-13T18:53:25.174Z,4.37
2018-09-13T18:55:52.554Z,4.17
2018-09-13T18:58:19.817Z,4.47
2018-09-13T19:00:47.151Z,5.07
2018-09-13T19:03:14.437Z,5.80
2018-09-13T19:05:41.718Z,5.60
2018-09-13T19:08:09.149Z,5.50
2018-09-13T19:10:36.406Z,5.70
2018-09-13T19:13:03.647Z,6.10
2018-09-13T19:15:30.947Z,5.70
2018-09-13T19:17:58.198Z,6.60
2018-09-13T19:20:25.449Z,6.47
2018-09-13T19:22:52.876Z,7.20
2018-09-13T19:25:22.329Z,6.03
2018-09-13T19:27:49.596Z,5.57
2018-09-13T19:30:16.925Z,5.90
2018-09-13T19:32:44.335Z,5.00
2018-09-13T19:35:11.587Z,4.83
2018-09-13T19:37:39.021Z,4.93
2018-09-13T19:40:06.591Z,4.20
2018-09-13T19:42:33.896Z,4.03
2018-09-13T19:45:02.364Z,4.70
2018-09-13T19:47:29.562Z,4.10
2018-09-13T19:49:56.777Z,3.90
2018-09-13T19:52:24.076Z,4.20
2018-09-13T19:54:51.282Z,4.10
2018-09-13T19:57:18.526Z,4.50
2018-09-13T19:59:45.782Z,4.37
2018-09-13T20:02:12.965Z,4.33
2018-09-13T20:04:40.218Z,4.43
2018-09-13T20:07:07.461Z,4.30
2018-09-13T20:09:34.673Z,3.93
2018-09-13T20:12:01.863Z,4.10
2018-09-13T20:14:29.117Z,4.30
2018-09-13T20:16:56.265Z,3.60
2018-09-13T20:19:23.468Z,3.70
2018-09-13T20:21:55.031Z,3.80
2018-09-13T20:24:22.255Z,3.50
2018-09-13T20:26:49.509Z,3.43
2018-09-13T20:29:16.786Z,3.53
2018-09-13T20:31:44.061Z,4.07
2018-09-13T20:34:11.371Z,3.20
2018-09-13T20:36:38.672Z,4.07
2018-09-13T20:39:08.198Z,4.00
2018-09-13T20:41:35.491Z,3.77
2018-09-13T20:44:02.840Z,3.97
2018-09-13T20:46:30.182Z,3.97
2018-09-13T20:48:57.439Z,3.80
2018-09-13T20:51:25.722Z,3.90
2018-09-13T20:53:52.984Z,4.27
2018-09-13T20:56:21.384Z,3.93
2018-09-13T20:58:49.281Z,4.10
2018-09-13T21:01:16.501Z,4.80
2018-09-13T21:03:43.727Z,4.50
2018-09-13T21:06:11.015Z,4.73
2018-09-13T21:08:38.316Z,4.40
2018-09-13T21:11:05.508Z,4.40
2018-09-13T21:13:32.842Z,4.27
2018-09-13T21:16:00.066Z,4.57
2018-09-13T21:18:27.312Z,4.07
2018-09-13T21:20:54.629Z,4.93
2018-09-13T21:23:21.889Z,4.47
2018-09-13T21:25:49.191Z,4.77
2018-09-13T21:28:16.475Z,4.23
2018-09-13T21:30:43.709Z,4.40
2018-09-13T21:33:10.954Z,4.07
2018-09-13T21:35:38.259Z,4.37
2018-09-13T21:38:05.549Z,4.10
2018-09-13T21:40:32.821Z,4.10
2018-09-13T21:43:00.152Z,4.20
2018-09-13T21:45:27.406Z,4.43
2018-09-13T21:47:55.516Z,4.10
2018-09-13T21:50:22.769Z,4.20
2018-09-13T21:52:50.025Z,3.93
2018-09-13T21:55:17.282Z,3.83
2018-09-13T21:57:44.563Z,3.80
2018-09-13T22:00:12.001Z,4.00
2018-09-13T22:02:39.453Z,3.60
2018-09-13T22:05:07.129Z,3.50
2018-09-13T22:07:35.078Z,3.57
2018-09-13T22:10:02.352Z,3.33
2018-09-13T22:12:29.555Z,3.10
2018-09-13T22:14:56.766Z,3.27
2018-09-13T22:17:24.071Z,3.20
2018-09-13T22:19:51.285Z,3.00
2018-09-13T22:22:18.521Z,3.20
2018-09-13T22:24:45.759Z,3.20
2018-09-13T22:27:15.880Z,3.13
2018-09-13T22:29:43.338Z,3.30
2018-09-13T22:32:10.630Z,3.67
2018-09-13T22:34:37.893Z,3.57
2018-09-13T22:37:05.213Z,3.50
2018-09-13T22:39:32.475Z,3.13
2018-09-13T22:41:59.690Z,3.37
2018-09-13T22:44:26.998Z,3.77
2018-09-13T22:46:54.246Z,3.50
2018-09-13T22:49:21.506Z,4.17
2018-09-13T22:51:48.758Z,4.10
2018-09-13T22:54:16.009Z,3.97
2018-09-13T22:56:43.255Z,4.10
2018-09-13T22:59:10.442Z,4.00
2018-09-13T23:01:37.721Z,4.27
2018-09-13T23:04:04.979Z,4.00
2018-09-13T23:06:32.167Z,4.10
2018-09-13T23:08:59.440Z,4.27
2018-09-13T23:11:26.626Z,4.30
2018-09-13T23:13:53.858Z,3.50
2018-09-13T23:16:21.122Z,4.13
2018-09-13T23:18:48.351Z,4.27
2018-09-13T23:21:15.557Z,4.70
2018-09-13T23:23:42.801Z,4.73
2018-09-13T23:26:10.024Z,4.60
2018-09-13T23:28:37.275Z,4.63
2018-09-13T23:31:04.539Z,4.90
2018-09-13T23:33:31.739Z,5.13
2018-09-13T23:35:58.959Z,4.80
2018-09-13T23:38:26.224Z,4.67
2018-09-13T23:40:53.468Z,5.10
2018-09-13T23:43:20.685Z,4.93
2018-09-13T23:45:47.957Z,4.97
2018-09-13T23:48:15.202Z,5.10
2018-09-13T23:50:42.530Z,5.60
2018-09-13T23:53:10.552Z,4.90
2018-09-13T23:55:37.805Z,5.00
2018-09-13T23:58:05.189Z,5.17
